createdAt,value
2022-09-25T00:00:32.618Z,5.50
2022-09-25T00:02:54.161Z,5.90
2022-09-25T00:05:15.763Z,10.37
2022-09-25T00:07:37.209Z,8.93
2022-09-25T00:09:58.649Z,8.73
2022-09-25T00:12:20.077Z,8.77
2022-09-25T00:14:41.516Z,9.03
2022-09-25T00:17:03.061Z,8.90
2022-09-25T00:19:43.104Z,8.70
2022-09-25T00:22:04.520Z,8.57
2022-09-25T00:24:26.213Z,8.80
2022-09-25T00:26:47.637Z,7.77
2022-09-25T00:29:14.273Z,8.70
2022-09-25T00:31:35.705Z,8.17
2022-09-25T00:33:59.189Z,8.73
2022-09-25T00:36:20.646Z,7.77
2022-09-25T00:38:43.404Z,7.97
2022-09-25T00:41:07.540Z,7.00
2022-09-25T00:43:46.718Z,6.30
2022-09-25T00:46:13.764Z,6.00
2022-09-25T00:48:36.086Z,6.27
2022-09-25T00:50:59.123Z,6.53
2022-09-25T00:53:26.372Z,7.27
2022-09-25T00:55:48.662Z,6.70
2022-09-25T00:58:11.872Z,5.77
2022-09-25T01:00:33.468Z,5.80
2022-09-25T01:02:56.642Z,5.60
2022-09-25T01:05:21.562Z,5.70
2022-09-25T01:07:46.378Z,6.10
2022-09-25T01:10:09.532Z,6.27
2022-09-25T01:12:31.092Z,6.20
2022-09-25T01:14:52.671Z,6.40
2022-09-25T01:17:27.132Z,6.13
2022-09-25T01:20:14.591Z,6.60
2022-09-25T01:23:02.393Z,6.50
2022-09-25T01:25:44.986Z,6.40
2022-09-25T01:28:24.317Z,6.00
2022-09-25T01:30:54.459Z,6.67
2022-09-25T01:33:35.478Z,7.00
2022-09-25T01:36:02.957Z,6.10
2022-09-25T01:38:35.692Z,6.13
2022-09-25T01:41:19.995Z,6.67
2022-09-25T01:43:58.614Z,6.17
2022-09-25T01:46:24.238Z,6.67
2022-09-25T01:48:49.949Z,6.37
2022-09-25T01:51:24.644Z,6.60
2022-09-25T01:53:51.194Z,5.97
2022-09-25T01:56:22.199Z,7.00
2022-09-25T01:58:51.479Z,6.33
2022-09-25T02:01:23.456Z,6.47
2022-09-25T02:03:56.303Z,6.10
2022-09-25T02:06:20.896Z,6.07
2022-09-25T02:08:49.244Z,6.50
2022-09-25T02:11:11.110Z,6.83
2022-09-25T02:13:52.371Z,6.10
2022-09-25T02:16:19.652Z,7.13
2022-09-25T02:19:00.047Z,6.50
2022-09-25T02:21:43.791Z,6.37
2022-09-25T02:24:17.297Z,6.73
2022-09-25T02:26:38.809Z,6.50
2022-09-25T02:29:01.091Z,6.37
2022-09-25T02:31:31.089Z,6.60
2022-09-25T02:33:52.632Z,6.10
2022-09-25T02:36:23.874Z,6.47
2022-09-25T02:38:46.273Z,6.73
2022-09-25T02:41:21.915Z,6.80
2022-09-25T02:43:52.805Z,6.23
2022-09-25T02:46:34.074Z,6.27
2022-09-25T02:49:40.606Z,6.63
2022-09-25T02:52:09.617Z,6.57
2022-09-25T02:54:38.699Z,6.00
2022-09-25T02:57:12.155Z,6.43
2022-09-25T02:59:40.255Z,6.80
2022-09-25T03:02:02.637Z,6.20
2022-09-25T03:04:26.720Z,6.13
2022-09-25T03:06:48.199Z,6.53
2022-09-25T03:09:11.801Z,5.93
2022-09-25T03:11:43.230Z,6.27
2022-09-25T03:14:05.874Z,6.70
2022-09-25T03:16:40.714Z,6.90
2022-09-25T03:19:03.124Z,6.63
2022-09-25T03:21:24.553Z,6.30
2022-09-25T03:23:46.006Z,6.47
2022-09-25T03:26:07.773Z,6.30
2022-09-25T03:28:29.347Z,7.13
2022-09-25T03:30:58.498Z,6.57
2022-09-25T03:33:20.042Z,6.30
2022-09-25T03:35:41.479Z,6.17
2022-09-25T03:38:03.449Z,6.60
2022-09-25T03:40:25.019Z,6.97
2022-09-25T03:42:47.377Z,6.50
2022-09-25T03:45:10.028Z,6.30
2022-09-25T03:47:31.456Z,6.07
2022-09-25T03:49:52.901Z,7.03
2022-09-25T03:52:14.560Z,6.47
2022-09-25T03:54:35.991Z,6.23
2022-09-25T03:56:57.880Z,6.50
2022-09-25T03:59:19.307Z,7.00
2022-09-25T04:01:41.219Z,6.10
2022-09-25T04:04:03.379Z,6.60
2022-09-25T04:06:26.373Z,7.20
2022-09-25T04:08:48.738Z,6.90
2022-09-25T04:11:11.152Z,7.20
2022-09-25T04:13:36.455Z,7.00
2022-09-25T04:16:00.127Z,6.30
2022-09-25T04:18:22.244Z,6.27
2022-09-25T04:20:43.707Z,6.50
2022-09-25T04:23:05.420Z,6.93
2022-09-25T04:25:27.105Z,7.33
2022-09-25T04:27:49.823Z,6.60
2022-09-25T04:30:11.622Z,7.00
2022-09-25T04:32:51.654Z,7.00
2022-09-25T04:35:13.119Z,6.83
2022-09-25T04:37:34.525Z,6.50
2022-09-25T04:39:57.227Z,6.93
2022-09-25T04:42:20.986Z,6.70
2022-09-25T04:44:42.543Z,6.30
2022-09-25T04:47:04.379Z,6.47
2022-09-25T04:49:25.852Z,6.30
2022-09-25T04:51:47.260Z,6.13
2022-09-25T04:54:08.722Z,6.60
2022-09-25T04:56:30.134Z,6.50
2022-09-25T04:58:51.787Z,6.50
2022-09-25T05:01:13.433Z,6.93
2022-09-25T05:03:35.360Z,6.60
2022-09-25T05:05:56.861Z,6.23
2022-09-25T05:08:18.305Z,6.40
2022-09-25T05:10:40.216Z,6.60
2022-09-25T05:13:04.056Z,6.53
2022-09-25T05:15:26.669Z,6.70
2022-09-25T05:17:48.102Z,6.83
2022-09-25T05:20:09.753Z,7.50
2022-09-25T05:22:31.205Z,6.70
2022-09-25T05:24:58.620Z,7.23
2022-09-25T05:27:21.939Z,6.90
2022-09-25T05:29:43.414Z,6.47
2022-09-25T05:32:04.881Z,6.57
2022-09-25T05:34:26.938Z,7.17
2022-09-25T05:36:48.399Z,7.70
2022-09-25T05:39:14.644Z,8.50
2022-09-25T05:41:36.745Z,8.17
2022-09-25T05:43:58.909Z,8.00
2022-09-25T05:46:20.477Z,8.70
2022-09-25T05:48:42.044Z,9.83
2022-09-25T05:51:03.920Z,10.50
2022-09-25T05:53:26.868Z,10.70
2022-09-25T05:55:52.862Z,11.00
2022-09-25T05:58:14.836Z,10.80
2022-09-25T06:00:36.392Z,10.47
2022-09-25T06:02:58.261Z,10.87
2022-09-25T06:05:19.842Z,11.93
2022-09-25T06:07:41.261Z,11.33
2022-09-25T06:10:03.011Z,12.07
2022-09-25T06:12:24.840Z,10.67
2022-09-25T06:14:46.651Z,10.90
2022-09-25T06:17:08.280Z,10.77
2022-09-25T06:19:30.179Z,10.20
2022-09-25T06:21:51.599Z,10.53
2022-09-25T06:24:13.740Z,10.73
2022-09-25T06:26:35.369Z,10.43
2022-09-25T06:29:02.306Z,10.57
2022-09-25T06:31:24.589Z,10.50
2022-09-25T06:33:50.490Z,11.43
2022-09-25T06:36:11.916Z,11.70
2022-09-25T06:38:34.431Z,12.27
2022-09-25T06:40:59.572Z,13.30
2022-09-25T06:43:21.475Z,13.50
2022-09-25T06:45:43.299Z,13.77
2022-09-25T06:48:08.709Z,14.40
2022-09-25T06:50:38.081Z,14.13
2022-09-25T06:53:02.819Z,14.90
2022-09-25T06:55:24.299Z,14.20
2022-09-25T06:57:46.438Z,14.87
2022-09-25T07:00:08.622Z,14.23
2022-09-25T07:02:48.543Z,14.10
2022-09-25T07:05:10.168Z,14.90
2022-09-25T07:07:31.673Z,14.53
2022-09-25T07:09:53.141Z,14.13
2022-09-25T07:12:15.719Z,14.30
2022-09-25T07:14:38.581Z,14.40
2022-09-25T07:16:59.983Z,15.03
2022-09-25T07:19:24.546Z,14.40
2022-09-25T07:21:49.269Z,14.80
2022-09-25T07:24:10.901Z,15.03
2022-09-25T07:26:34.501Z,15.10
2022-09-25T07:28:58.527Z,14.47
2022-09-25T07:31:26.092Z,14.37
2022-09-25T07:33:48.148Z,14.53
2022-09-25T07:36:09.716Z,14.00
2022-09-25T07:38:31.190Z,14.63
2022-09-25T07:40:53.397Z,13.93
2022-09-25T07:43:14.880Z,14.33
2022-09-25T07:45:37.119Z,14.40
2022-09-25T07:48:00.817Z,14.13
2022-09-25T07:50:22.338Z,14.27
2022-09-25T07:52:43.861Z,14.93
2022-09-25T07:55:06.399Z,15.35
2022-09-25T07:57:28.186Z,14.30
2022-09-25T07:59:49.619Z,13.93
2022-09-25T08:02:12.319Z,14.88
2022-09-25T08:04:33.803Z,15.50
2022-09-25T08:06:55.216Z,14.70
2022-09-25T08:09:16.662Z,15.15
2022-09-25T08:11:38.421Z,15.50
2022-09-25T08:13:59.871Z,16.15
2022-09-25T08:16:23.258Z,14.95
2022-09-25T08:18:46.940Z,16.40
2022-09-25T08:21:10.293Z,16.20
2022-09-25T08:23:32.340Z,14.98
2022-09-25T08:25:53.755Z,14.30
2022-09-25T08:28:16.130Z,14.73
2022-09-25T08:30:38.235Z,14.63
2022-09-25T08:33:00.142Z,14.70
2022-09-25T08:35:21.985Z,14.82
2022-09-25T08:37:44.981Z,12.93
2022-09-25T08:40:06.886Z,13.90
2022-09-25T08:42:34.990Z,13.77
2022-09-25T08:45:22.134Z,13.98
2022-09-25T08:48:02.815Z,13.93
2022-09-25T08:50:25.930Z,12.80
2022-09-25T08:53:05.788Z,14.55
2022-09-25T08:55:50.413Z,13.80
2022-09-25T08:58:15.864Z,15.13
2022-09-25T09:00:37.765Z,13.75
2022-09-25T09:02:59.697Z,15.45
2022-09-25T09:05:36.496Z,14.32
2022-09-25T09:08:06.096Z,13.38
2022-09-25T09:10:48.777Z,14.38
2022-09-25T09:13:23.977Z,14.40
2022-09-25T09:15:54.504Z,13.90
2022-09-25T09:18:27.838Z,15.45
2022-09-25T09:20:56.238Z,14.15
2022-09-25T09:23:21.393Z,14.70
2022-09-25T09:25:57.222Z,14.80
2022-09-25T09:28:54.573Z,14.60
2022-09-25T09:31:34.531Z,13.70
2022-09-25T09:34:40.910Z,13.93
2022-09-25T09:37:31.760Z,13.45
2022-09-25T09:40:12.511Z,12.70
2022-09-25T09:42:45.948Z,12.52
2022-09-25T09:45:19.945Z,13.80
2022-09-25T09:48:18.756Z,12.80
2022-09-25T09:50:51.423Z,11.75
2022-09-25T09:53:36.445Z,11.57
2022-09-25T09:56:06.417Z,12.68
2022-09-25T09:58:44.981Z,12.50
2022-09-25T10:01:28.978Z,12.70
2022-09-25T10:03:54.209Z,12.07
2022-09-25T10:06:21.915Z,12.20
2022-09-25T10:08:44.127Z,12.50
2022-09-25T10:11:14.020Z,11.27
2022-09-25T10:13:39.900Z,11.45
2022-09-25T10:16:17.999Z,12.65
2022-09-25T10:18:46.597Z,11.25
2022-09-25T10:21:18.311Z,12.15
2022-09-25T10:23:46.684Z,11.10
2022-09-25T10:26:28.929Z,10.98
2022-09-25T10:28:50.894Z,10.27
2022-09-25T10:31:12.979Z,10.70
2022-09-25T10:33:34.509Z,11.57
2022-09-25T10:35:56.525Z,11.30
2022-09-25T10:38:42.172Z,10.90
2022-09-25T10:41:13.965Z,9.43
2022-09-25T10:43:35.922Z,10.27
2022-09-25T10:46:15.488Z,10.30
2022-09-25T10:48:56.937Z,10.57
2022-09-25T10:51:19.973Z,10.32
2022-09-25T10:53:41.532Z,10.15
2022-09-25T10:56:11.206Z,10.48
2022-09-25T10:58:38.316Z,9.70
2022-09-25T11:01:01.863Z,9.45
2022-09-25T11:03:30.279Z,10.60
2022-09-25T11:06:10.037Z,10.52
2022-09-25T11:08:37.934Z,11.00
2022-09-25T11:11:01.353Z,9.65
2022-09-25T11:13:29.145Z,9.35
2022-09-25T11:15:54.373Z,9.32
2022-09-25T11:18:36.207Z,8.70
2022-09-25T11:21:03.195Z,9.07
2022-09-25T11:23:49.442Z,8.98
2022-09-25T11:26:22.029Z,9.63
2022-09-25T11:29:04.580Z,9.45
2022-09-25T11:31:35.705Z,8.63
2022-09-25T11:34:24.051Z,9.05
2022-09-25T11:36:59.236Z,9.43
2022-09-25T11:39:53.737Z,8.48
2022-09-25T11:42:26.625Z,8.75
2022-09-25T11:44:59.545Z,8.18
2022-09-25T11:47:49.472Z,8.77
2022-09-25T11:50:16.002Z,8.40
2022-09-25T11:53:01.842Z,8.02
2022-09-25T11:55:46.685Z,8.50
2022-09-25T11:58:37.507Z,8.02
2022-09-25T12:01:26.728Z,7.82
2022-09-25T12:03:59.733Z,7.68
2022-09-25T12:07:02.941Z,8.32
2022-09-25T12:09:41.022Z,8.23
2022-09-25T12:12:16.067Z,7.95
2022-09-25T12:14:46.646Z,8.35
2022-09-25T12:17:20.258Z,8.23
2022-09-25T12:19:51.397Z,8.13
2022-09-25T12:22:48.702Z,7.75
2022-09-25T12:25:18.540Z,7.67
2022-09-25T12:28:14.044Z,9.18
2022-09-25T12:31:02.264Z,10.10
2022-09-25T12:33:52.511Z,9.40
2022-09-25T12:36:41.263Z,9.57
2022-09-25T12:39:27.447Z,10.20
2022-09-25T12:42:20.445Z,11.40
2022-09-25T12:44:54.913Z,10.67
2022-09-25T12:47:34.135Z,10.70
2022-09-25T12:50:01.495Z,10.80
2022-09-25T12:52:29.744Z,10.00
2022-09-25T12:55:13.839Z,9.03
2022-09-25T12:57:40.653Z,8.18
2022-09-25T13:00:17.819Z,9.45
2022-09-25T13:02:51.346Z,8.82
2022-09-25T13:05:56.330Z,7.95
2022-09-25T13:08:20.627Z,7.15
2022-09-25T13:11:13.462Z,7.00
2022-09-25T13:13:45.332Z,7.15
2022-09-25T13:16:06.900Z,7.00
2022-09-25T13:18:30.425Z,6.65
2022-09-25T13:20:56.737Z,6.25
2022-09-25T13:23:28.850Z,5.82
2022-09-25T13:26:01.225Z,6.07
2022-09-25T13:28:26.497Z,6.60
2022-09-25T13:31:10.619Z,6.30
2022-09-25T13:33:44.852Z,5.77
2022-09-25T13:36:08.997Z,5.65
2022-09-25T13:38:49.189Z,6.18
2022-09-25T13:41:14.702Z,5.97
2022-09-25T13:43:38.443Z,6.53
2022-09-25T13:46:21.632Z,6.10
2022-09-25T13:48:44.029Z,5.97
2022-09-25T13:51:18.114Z,6.00
2022-09-25T13:54:03.661Z,5.10
2022-09-25T13:56:27.326Z,5.90
2022-09-25T13:59:19.385Z,5.40
2022-09-25T14:01:46.394Z,5.33
2022-09-25T14:04:10.902Z,5.65
2022-09-25T14:06:36.813Z,5.30
2022-09-25T14:09:09.921Z,5.20
2022-09-25T14:11:35.199Z,4.40
2022-09-25T14:13:59.129Z,3.47
2022-09-25T14:16:34.471Z,3.40
2022-09-25T14:19:01.520Z,3.40
2022-09-25T14:21:23.576Z,3.20
2022-09-25T14:23:53.537Z,3.37
2022-09-25T14:26:24.850Z,2.80
2022-09-25T14:28:48.060Z,2.57
2022-09-25T14:31:31.845Z,2.60
2022-09-25T14:34:15.286Z,2.70
2022-09-25T14:36:59.005Z,3.37
2022-09-25T14:39:44.682Z,2.90
2022-09-25T14:42:32.120Z,2.90
2022-09-25T14:45:20.137Z,2.70
2022-09-25T14:47:45.141Z,2.93
2022-09-25T14:50:07.078Z,3.50
2022-09-25T14:52:33.023Z,2.80
2022-09-25T14:54:57.106Z,4.40
2022-09-25T14:57:25.654Z,3.10
2022-09-25T14:59:51.437Z,2.97
2022-09-25T15:02:18.628Z,3.33
2022-09-25T15:04:40.113Z,3.13
2022-09-25T15:07:03.369Z,3.10
2022-09-25T15:09:30.956Z,2.77
2022-09-25T15:11:54.876Z,2.60
2022-09-25T15:14:19.867Z,3.20
2022-09-25T15:17:01.563Z,2.83
2022-09-25T15:19:30.337Z,3.03
2022-09-25T15:21:52.387Z,2.70
2022-09-25T15:24:17.925Z,2.77
2022-09-25T15:26:50.036Z,3.13
2022-09-25T15:29:21.230Z,2.90
2022-09-25T15:31:42.782Z,3.20
2022-09-25T15:34:11.635Z,3.20
2022-09-25T15:36:33.085Z,3.17
2022-09-25T15:39:02.997Z,3.33
2022-09-25T15:41:24.477Z,3.40
2022-09-25T15:43:45.923Z,4.10
2022-09-25T15:46:07.303Z,3.43
2022-09-25T15:48:33.342Z,3.43
2022-09-25T15:50:56.077Z,3.53
2022-09-25T15:53:22.028Z,3.33
2022-09-25T15:55:43.456Z,3.53
2022-09-25T15:58:12.225Z,3.37
2022-09-25T16:00:52.368Z,4.17
2022-09-25T16:03:32.276Z,4.50
2022-09-25T16:05:56.147Z,3.87
2022-09-25T16:08:36.315Z,4.07
2022-09-25T16:11:18.688Z,3.63
2022-09-25T16:13:43.698Z,6.97
2022-09-25T16:16:17.736Z,6.83
2022-09-25T16:18:40.449Z,6.60
2022-09-25T16:21:33.886Z,7.13
2022-09-25T16:24:01.321Z,8.03
2022-09-25T16:26:25.517Z,7.83
2022-09-25T16:28:54.682Z,5.93
2022-09-25T16:31:21.998Z,7.17
2022-09-25T16:33:50.632Z,7.07
2022-09-25T16:36:18.681Z,10.00
2022-09-25T16:38:40.328Z,5.13
2022-09-25T16:41:04.474Z,4.60
2022-09-25T16:43:26.330Z,4.90
2022-09-25T16:46:00.324Z,4.93
2022-09-25T16:48:34.735Z,3.67
2022-09-25T16:50:59.947Z,4.00
2022-09-25T16:53:24.842Z,6.17
2022-09-25T16:55:49.000Z,4.80
2022-09-25T16:58:11.009Z,5.20
2022-09-25T17:00:32.405Z,4.47
2022-09-25T17:02:54.681Z,4.77
2022-09-25T17:05:29.456Z,4.87
2022-09-25T17:07:53.624Z,3.80
2022-09-25T17:10:17.901Z,4.30
2022-09-25T17:12:39.476Z,5.63
2022-09-25T17:15:01.002Z,3.50
2022-09-25T17:17:22.449Z,3.20
2022-09-25T17:19:44.074Z,3.33
2022-09-25T17:22:05.535Z,3.30
2022-09-25T17:24:27.529Z,3.03
2022-09-25T17:26:50.418Z,3.23
2022-09-25T17:29:12.223Z,3.50
2022-09-25T17:31:36.104Z,3.20
2022-09-25T17:33:57.571Z,3.50
2022-09-25T17:36:19.237Z,3.17
2022-09-25T17:38:41.400Z,2.90
2022-09-25T17:41:06.227Z,3.07
2022-09-25T17:43:27.889Z,3.40
2022-09-25T17:45:57.783Z,3.23
2022-09-25T17:48:24.633Z,3.37
2022-09-25T17:50:46.113Z,3.27
2022-09-25T17:53:20.017Z,3.23
2022-09-25T17:55:41.577Z,3.47
2022-09-25T17:58:03.002Z,2.87
2022-09-25T18:00:25.418Z,3.20
2022-09-25T18:02:46.968Z,3.57
2022-09-25T18:05:15.204Z,3.47
2022-09-25T18:07:36.691Z,3.73
2022-09-25T18:09:58.447Z,3.67
2022-09-25T18:12:20.099Z,3.83
2022-09-25T18:14:43.068Z,3.60
2022-09-25T18:17:04.733Z,3.60
2022-09-25T18:19:44.708Z,4.03
2022-09-25T18:22:19.171Z,4.10
2022-09-25T18:24:40.950Z,3.17
2022-09-25T18:27:02.948Z,3.07
2022-09-25T18:29:25.421Z,3.67
2022-09-25T18:31:48.097Z,3.63
2022-09-25T18:34:09.617Z,3.33
2022-09-25T18:36:31.583Z,3.63
2022-09-25T18:38:53.012Z,3.33
2022-09-25T18:41:17.376Z,3.53
2022-09-25T18:43:38.877Z,3.53
2022-09-25T18:46:01.224Z,3.67
2022-09-25T18:48:22.997Z,3.30
2022-09-25T18:50:50.810Z,3.93
2022-09-25T18:53:12.649Z,3.63
2022-09-25T18:55:34.240Z,3.83
2022-09-25T18:57:55.659Z,3.50
2022-09-25T19:00:18.235Z,4.27
2022-09-25T19:02:40.975Z,4.07
2022-09-25T19:05:02.506Z,3.90
2022-09-25T19:07:26.120Z,4.63
2022-09-25T19:09:47.709Z,4.17
2022-09-25T19:12:15.239Z,4.33
2022-09-25T19:14:36.686Z,4.63
2022-09-25T19:16:58.377Z,4.90
2022-09-25T19:19:19.854Z,5.20
2022-09-25T19:21:44.909Z,4.53
2022-09-25T19:24:06.449Z,4.53
2022-09-25T19:26:28.021Z,4.73
2022-09-25T19:28:49.481Z,4.50
2022-09-25T19:31:20.008Z,4.70
2022-09-25T19:33:41.634Z,4.40
2022-09-25T19:36:13.869Z,3.87
2022-09-25T19:38:37.066Z,4.00
2022-09-25T19:40:58.946Z,3.83
2022-09-25T19:43:20.481Z,3.80
2022-09-25T19:45:49.094Z,4.80
2022-09-25T19:48:10.553Z,5.30
2022-09-25T19:50:32.015Z,5.50
2022-09-25T19:52:54.776Z,5.10
2022-09-25T19:55:16.242Z,5.63
2022-09-25T19:57:37.798Z,5.63
2022-09-25T20:00:00.466Z,5.67
2022-09-25T20:02:21.961Z,6.57
2022-09-25T20:04:44.119Z,5.77
2022-09-25T20:07:05.569Z,6.27
2022-09-25T20:09:27.300Z,6.63
2022-09-25T20:11:48.757Z,6.77
2022-09-25T20:14:10.274Z,7.27
2022-09-25T20:16:32.460Z,6.63
2022-09-25T20:18:57.746Z,5.93
2022-09-25T20:21:21.420Z,5.37
2022-09-25T20:23:43.177Z,5.40
2022-09-25T20:26:14.283Z,4.70
2022-09-25T20:28:37.829Z,4.47
2022-09-25T20:31:03.501Z,4.23
2022-09-25T20:33:24.975Z,4.53
2022-09-25T20:35:46.410Z,4.40
2022-09-25T20:38:10.922Z,4.10
2022-09-25T20:40:32.523Z,4.10
2022-09-25T20:42:53.977Z,3.73
2022-09-25T20:45:15.576Z,4.37
2022-09-25T20:47:45.136Z,3.90
2022-09-25T20:50:07.836Z,3.90
2022-09-25T20:52:32.056Z,4.33
2022-09-25T20:54:53.729Z,4.77
2022-09-25T20:57:15.203Z,4.77
2022-09-25T20:59:37.403Z,4.60
2022-09-25T21:01:59.168Z,4.93
2022-09-25T21:04:20.696Z,4.80
2022-09-25T21:06:42.097Z,5.10
2022-09-25T21:09:07.548Z,4.23
2022-09-25T21:11:31.230Z,5.00
2022-09-25T21:13:54.588Z,4.20
2022-09-25T21:16:16.190Z,4.63
2022-09-25T21:18:40.582Z,4.30
2022-09-25T21:21:09.392Z,4.90
2022-09-25T21:23:31.153Z,4.30
2022-09-25T21:25:52.585Z,4.70
2022-09-25T21:28:14.021Z,4.50
2022-09-25T21:30:35.460Z,5.27
2022-09-25T21:32:56.926Z,4.90
2022-09-25T21:35:18.376Z,5.23
2022-09-25T21:37:39.809Z,5.37
2022-09-25T21:40:01.407Z,4.80
2022-09-25T21:42:22.854Z,5.53
2022-09-25T21:44:44.252Z,5.73
2022-09-25T21:47:05.650Z,4.63
2022-09-25T21:49:27.149Z,5.20
2022-09-25T21:51:49.776Z,4.30
2022-09-25T21:54:13.033Z,4.20
2022-09-25T21:56:34.764Z,4.13
2022-09-25T21:58:57.566Z,4.10
2022-09-25T22:01:27.176Z,3.57
2022-09-25T22:03:50.854Z,3.50
2022-09-25T22:06:17.631Z,4.67
2022-09-25T22:08:42.973Z,4.13
2022-09-25T22:11:05.627Z,3.63
2022-09-25T22:13:30.340Z,3.53
2022-09-25T22:16:02.272Z,3.87
2022-09-25T22:18:23.731Z,4.10
2022-09-25T22:20:45.142Z,3.67
2022-09-25T22:23:06.581Z,3.50
2022-09-25T22:25:28.014Z,3.23
2022-09-25T22:27:49.443Z,3.40
2022-09-25T22:30:11.327Z,3.93
2022-09-25T22:32:32.749Z,4.00
2022-09-25T22:34:54.224Z,3.77
2022-09-25T22:37:15.878Z,3.97
2022-09-25T22:39:37.290Z,4.03
2022-09-25T22:41:58.926Z,4.03
2022-09-25T22:44:20.973Z,3.60
2022-09-25T22:46:42.396Z,3.60
2022-09-25T22:49:03.905Z,4.10
2022-09-25T22:51:26.197Z,3.67
2022-09-25T22:53:49.558Z,4.30
2022-09-25T22:56:15.528Z,4.73
2022-09-25T22:58:36.999Z,4.00
2022-09-25T23:01:01.253Z,3.97
2022-09-25T23:03:24.746Z,4.00
2022-09-25T23:05:46.489Z,3.87
2022-09-25T23:08:08.813Z,3.90
2022-09-25T23:10:43.129Z,4.07
2022-09-25T23:13:11.742Z,4.00
2022-09-25T23:15:33.211Z,3.97
2022-09-25T23:17:54.642Z,3.93
2022-09-25T23:20:16.114Z,4.27
2022-09-25T23:22:37.559Z,3.80
2022-09-25T23:24:58.976Z,4.23
2022-09-25T23:27:20.401Z,4.40
2022-09-25T23:29:41.821Z,4.87
2022-09-25T23:32:04.765Z,4.50
2022-09-25T23:34:26.262Z,4.60
2022-09-25T23:36:47.733Z,4.77
2022-09-25T23:39:10.601Z,5.63
2022-09-25T23:41:38.406Z,4.50
2022-09-25T23:44:01.375Z,4.67
2022-09-25T23:46:25.558Z,5.00
2022-09-25T23:48:47.965Z,4.43
2022-09-25T23:51:09.910Z,5.00
2022-09-25T23:53:31.377Z,4.87
2022-09-25T23:55:52.933Z,5.63
2022-09-25T23:58:14.361Z,5.30
